sensor_id;sensor_type;location;lat;lon;timestamp;temperature;humidity
34406;DHT22;20658;45.630;8.886;2023-08-06T00:00:38;20.20;88.00
34406;DHT22;20658;45.630;8.886;2023-08-06T00:03:11;20.20;88.90
34406;DHT22;20658;45.630;8.886;2023-08-06T00:05:46;20.10;89.40
34406;DHT22;20658;45.630;8.886;2023-08-06T00:08:19;20.10;89.80
34406;DHT22;20658;45.630;8.886;2023-08-06T00:10:52;20.10;90.00
34406;DHT22;20658;45.630;8.886;2023-08-06T00:13:26;20.00;89.80
34406;DHT22;20658;45.630;8.886;2023-08-06T00:16:09;20.10;90.10
34406;DHT22;20658;45.630;8.886;2023-08-06T00:18:42;20.00;90.00
34406;DHT22;20658;45.630;8.886;2023-08-06T00:21:12;20.00;90.40
34406;DHT22;20658;45.630;8.886;2023-08-06T00:23:46;20.00;90.70
34406;DHT22;20658;45.630;8.886;2023-08-06T00:26:19;20.00;90.80
34406;DHT22;20658;45.630;8.886;2023-08-06T00:28:53;20.00;91.10
34406;DHT22;20658;45.630;8.886;2023-08-06T00:31:26;20.00;91.20
34406;DHT22;20658;45.630;8.886;2023-08-06T00:33:59;19.90;91.00
34406;DHT22;20658;45.630;8.886;2023-08-06T00:36:34;20.00;91.30
34406;DHT22;20658;45.630;8.886;2023-08-06T00:39:08;20.00;91.70
34406;DHT22;20658;45.630;8.886;2023-08-06T00:41:41;20.00;91.80
34406;DHT22;20658;45.630;8.886;2023-08-06T00:44:14;19.90;92.30
34406;DHT22;20658;45.630;8.886;2023-08-06T00:46:43;19.90;92.40
34406;DHT22;20658;45.630;8.886;2023-08-06T00:49:12;19.90;92.50
34406;DHT22;20658;45.630;8.886;2023-08-06T00:51:47;19.90;93.00
34406;DHT22;20658;45.630;8.886;2023-08-06T00:54:21;19.90;93.00
34406;DHT22;20658;45.630;8.886;2023-08-06T00:56:55;19.90;93.30
34406;DHT22;20658;45.630;8.886;2023-08-06T00:59:30;19.90;93.00
34406;DHT22;20658;45.630;8.886;2023-08-06T01:02:04;19.90;93.50
34406;DHT22;20658;45.630;8.886;2023-08-06T01:04:38;19.90;93.50
34406;DHT22;20658;45.630;8.886;2023-08-06T01:07:21;19.90;93.70
34406;DHT22;20658;45.630;8.886;2023-08-06T01:10:26;19.90;93.90
34406;DHT22;20658;45.630;8.886;2023-08-06T01:13:16;19.90;94.30
34406;DHT22;20658;45.630;8.886;2023-08-06T01:15:56;19.90;94.60
34406;DHT22;20658;45.630;8.886;2023-08-06T01:18:31;19.90;94.70
34406;DHT22;20658;45.630;8.886;2023-08-06T01:21:06;19.90;94.80
34406;DHT22;20658;45.630;8.886;2023-08-06T01:23:40;19.90;94.70
34406;DHT22;20658;45.630;8.886;2023-08-06T01:26:19;19.90;95.30
34406;DHT22;20658;45.630;8.886;2023-08-06T01:29:01;20.00;95.60
34406;DHT22;20658;45.630;8.886;2023-08-06T01:31:38;20.00;96.40
34406;DHT22;20658;45.630;8.886;2023-08-06T01:34:17;20.40;97.20
34406;DHT22;20658;45.630;8.886;2023-08-06T01:36:52;20.00;97.10
34406;DHT22;20658;45.630;8.886;2023-08-06T01:39:26;20.00;98.00
34406;DHT22;20658;45.630;8.886;2023-08-06T01:42:02;20.00;98.00
34406;DHT22;20658;45.630;8.886;2023-08-06T01:44:36;20.00;99.10
34406;DHT22;20658;45.630;8.886;2023-08-06T01:47:09;19.90;99.60
34406;DHT22;20658;45.630;8.886;2023-08-06T01:49:43;19.90;99.90
34406;DHT22;20658;45.630;8.886;2023-08-06T01:52:19;19.90;99.90
34406;DHT22;20658;45.630;8.886;2023-08-06T01:54:53;19.90;99.90
34406;DHT22;20658;45.630;8.886;2023-08-06T01:57:26;19.90;99.90
34406;DHT22;20658;45.630;8.886;2023-08-06T01:59:54;19.80;99.90
34406;DHT22;20658;45.630;8.886;2023-08-06T02:02:38;19.80;99.90
34406;DHT22;20658;45.630;8.886;2023-08-06T02:05:13;19.80;99.90
34406;DHT22;20658;45.630;8.886;2023-08-06T02:07:42;19.80;99.90
34406;DHT22;20658;45.630;8.886;2023-08-06T02:10:16;19.70;99.90
34406;DHT22;20658;45.630;8.886;2023-08-06T02:12:49;19.70;99.90
34406;DHT22;20658;45.630;8.886;2023-08-06T02:15:23;19.70;99.90
34406;DHT22;20658;45.630;8.886;2023-08-06T02:17:56;19.70;99.90
34406;DHT22;20658;45.630;8.886;2023-08-06T02:20:30;19.70;99.90
34406;DHT22;20658;45.630;8.886;2023-08-06T02:23:04;19.70;99.90
34406;DHT22;20658;45.630;8.886;2023-08-06T02:25:38;19.70;99.90
34406;DHT22;20658;45.630;8.886;2023-08-06T02:28:11;19.60;99.90
34406;DHT22;20658;45.630;8.886;2023-08-06T02:30:50;19.60;99.90
34406;DHT22;20658;45.630;8.886;2023-08-06T02:33:23;19.60;99.90
34406;DHT22;20658;45.630;8.886;2023-08-06T02:35:59;19.60;99.90
34406;DHT22;20658;45.630;8.886;2023-08-06T02:38:30;19.60;99.90
34406;DHT22;20658;45.630;8.886;2023-08-06T02:41:04;19.50;99.90
34406;DHT22;20658;45.630;8.886;2023-08-06T02:43:38;19.50;99.90
34406;DHT22;20658;45.630;8.886;2023-08-06T02:46:11;19.40;99.90
34406;DHT22;20658;45.630;8.886;2023-08-06T02:48:45;19.40;99.90
34406;DHT22;20658;45.630;8.886;2023-08-06T02:51:18;19.40;99.90
34406;DHT22;20658;45.630;8.886;2023-08-06T02:53:53;19.30;99.90
34406;DHT22;20658;45.630;8.886;2023-08-06T02:56:26;19.30;99.90
34406;DHT22;20658;45.630;8.886;2023-08-06T02:59:09;19.20;99.90
34406;DHT22;20658;45.630;8.886;2023-08-06T03:01:50;19.20;99.90
34406;DHT22;20658;45.630;8.886;2023-08-06T03:04:31;19.10;99.90
34406;DHT22;20658;45.630;8.886;2023-08-06T03:07:05;19.10;99.90
34406;DHT22;20658;45.630;8.886;2023-08-06T03:09:49;19.10;99.90
34406;DHT22;20658;45.630;8.886;2023-08-06T03:12:23;19.00;99.90
34406;DHT22;20658;45.630;8.886;2023-08-06T03:14:58;19.00;99.90
34406;DHT22;20658;45.630;8.886;2023-08-06T03:17:32;19.00;99.90
34406;DHT22;20658;45.630;8.886;2023-08-06T03:20:07;18.90;99.90
34406;DHT22;20658;45.630;8.886;2023-08-06T03:22:41;18.90;99.90
34406;DHT22;20658;45.630;8.886;2023-08-06T03:25:16;18.80;99.90
34406;DHT22;20658;45.630;8.886;2023-08-06T03:27:50;18.80;99.90
34406;DHT22;20658;45.630;8.886;2023-08-06T03:30:23;18.70;99.90
34406;DHT22;20658;45.630;8.886;2023-08-06T03:32:57;18.70;99.90
34406;DHT22;20658;45.630;8.886;2023-08-06T03:35:31;18.70;99.90
34406;DHT22;20658;45.630;8.886;2023-08-06T03:38:04;18.60;99.90
34406;DHT22;20658;45.630;8.886;2023-08-06T03:40:39;18.60;99.90
34406;DHT22;20658;45.630;8.886;2023-08-06T03:43:13;18.50;99.90
34406;DHT22;20658;45.630;8.886;2023-08-06T03:45:47;18.50;99.90
34406;DHT22;20658;45.630;8.886;2023-08-06T03:48:20;18.40;99.90
34406;DHT22;20658;45.630;8.886;2023-08-06T03:50:54;18.40;99.90
34406;DHT22;20658;45.630;8.886;2023-08-06T03:53:27;18.30;99.90
34406;DHT22;20658;45.630;8.886;2023-08-06T03:55:57;18.30;99.90
34406;DHT22;20658;45.630;8.886;2023-08-06T03:58:32;18.30;97.20
34406;DHT22;20658;45.630;8.886;2023-08-06T04:01:07;18.30;94.20
34406;DHT22;20658;45.630;8.886;2023-08-06T04:03:43;18.30;92.20
34406;DHT22;20658;45.630;8.886;2023-08-06T04:06:17;18.30;89.50
34406;DHT22;20658;45.630;8.886;2023-08-06T04:08:52;18.30;89.10
34406;DHT22;20658;45.630;8.886;2023-08-06T04:11:26;18.30;89.10
34406;DHT22;20658;45.630;8.886;2023-08-06T04:14:00;18.20;88.70
34406;DHT22;20658;45.630;8.886;2023-08-06T04:16:33;18.20;88.20
34406;DHT22;20658;45.630;8.886;2023-08-06T04:19:07;18.10;87.80
34406;DHT22;20658;45.630;8.886;2023-08-06T04:21:41;18.10;87.50
34406;DHT22;20658;45.630;8.886;2023-08-06T04:24:15;18.10;86.90
34406;DHT22;20658;45.630;8.886;2023-08-06T04:26:49;18.00;86.00
34406;DHT22;20658;45.630;8.886;2023-08-06T04:29:24;18.00;85.60
34406;DHT22;20658;45.630;8.886;2023-08-06T04:31:58;18.00;84.20
34406;DHT22;20658;45.630;8.886;2023-08-06T04:34:32;18.00;85.40
34406;DHT22;20658;45.630;8.886;2023-08-06T04:37:06;18.00;85.10
34406;DHT22;20658;45.630;8.886;2023-08-06T04:39:35;17.90;82.70
34406;DHT22;20658;45.630;8.886;2023-08-06T04:42:10;18.00;81.10
34406;DHT22;20658;45.630;8.886;2023-08-06T04:44:43;18.00;81.70
34406;DHT22;20658;45.630;8.886;2023-08-06T04:47:17;18.00;81.50
34406;DHT22;20658;45.630;8.886;2023-08-06T04:49:50;18.00;80.30
34406;DHT22;20658;45.630;8.886;2023-08-06T04:52:24;18.00;80.30
34406;DHT22;20658;45.630;8.886;2023-08-06T04:54:59;18.00;77.30
34406;DHT22;20658;45.630;8.886;2023-08-06T04:57:34;18.10;75.30
34406;DHT22;20658;45.630;8.886;2023-08-06T05:00:08;18.20;73.20
34406;DHT22;20658;45.630;8.886;2023-08-06T05:02:42;18.20;72.70
34406;DHT22;20658;45.630;8.886;2023-08-06T05:05:15;18.20;72.00
34406;DHT22;20658;45.630;8.886;2023-08-06T05:07:49;18.30;72.10
34406;DHT22;20658;45.630;8.886;2023-08-06T05:10:24;18.30;70.20
34406;DHT22;20658;45.630;8.886;2023-08-06T05:12:59;18.40;70.90
34406;DHT22;20658;45.630;8.886;2023-08-06T05:15:33;18.40;69.60
34406;DHT22;20658;45.630;8.886;2023-08-06T05:18:06;18.60;67.60
34406;DHT22;20658;45.630;8.886;2023-08-06T05:20:41;18.60;65.40
34406;DHT22;20658;45.630;8.886;2023-08-06T05:23:15;18.80;64.20
34406;DHT22;20658;45.630;8.886;2023-08-06T05:25:48;18.90;63.20
34406;DHT22;20658;45.630;8.886;2023-08-06T05:28:23;19.00;61.40
34406;DHT22;20658;45.630;8.886;2023-08-06T05:30:57;19.10;61.20
34406;DHT22;20658;45.630;8.886;2023-08-06T05:33:30;19.20;59.10
34406;DHT22;20658;45.630;8.886;2023-08-06T05:36:04;19.50;58.60
34406;DHT22;20658;45.630;8.886;2023-08-06T05:38:37;19.90;57.90
34406;DHT22;20658;45.630;8.886;2023-08-06T05:41:11;20.20;57.20
34406;DHT22;20658;45.630;8.886;2023-08-06T05:43:46;20.50;56.10
34406;DHT22;20658;45.630;8.886;2023-08-06T05:46:19;20.70;55.80
34406;DHT22;20658;45.630;8.886;2023-08-06T05:48:52;20.80;54.90
34406;DHT22;20658;45.630;8.886;2023-08-06T05:51:27;21.00;55.30
34406;DHT22;20658;45.630;8.886;2023-08-06T05:54:00;21.10;54.60
34406;DHT22;20658;45.630;8.886;2023-08-06T05:56:33;21.30;53.40
34406;DHT22;20658;45.630;8.886;2023-08-06T05:59:08;21.40;53.20
34406;DHT22;20658;45.630;8.886;2023-08-06T06:01:42;21.50;51.80
34406;DHT22;20658;45.630;8.886;2023-08-06T06:04:15;21.70;51.70
34406;DHT22;20658;45.630;8.886;2023-08-06T06:06:49;21.80;50.30
34406;DHT22;20658;45.630;8.886;2023-08-06T06:09:22;22.00;49.40
34406;DHT22;20658;45.630;8.886;2023-08-06T06:11:55;22.10;49.20
34406;DHT22;20658;45.630;8.886;2023-08-06T06:14:30;22.30;49.80
34406;DHT22;20658;45.630;8.886;2023-08-06T06:17:04;22.30;50.50
34406;DHT22;20658;45.630;8.886;2023-08-06T06:19:37;22.30;52.30
34406;DHT22;20658;45.630;8.886;2023-08-06T06:22:11;22.40;53.90
34406;DHT22;20658;45.630;8.886;2023-08-06T06:24:44;22.60;54.50
34406;DHT22;20658;45.630;8.886;2023-08-06T06:27:17;22.70;55.50
34406;DHT22;20658;45.630;8.886;2023-08-06T06:29:52;22.70;55.20
34406;DHT22;20658;45.630;8.886;2023-08-06T06:32:26;22.80;53.40
34406;DHT22;20658;45.630;8.886;2023-08-06T06:35:00;23.10;51.40
34406;DHT22;20658;45.630;8.886;2023-08-06T06:37:28;23.20;51.40
34406;DHT22;20658;45.630;8.886;2023-08-06T06:40:02;23.50;48.80
34406;DHT22;20658;45.630;8.886;2023-08-06T06:42:36;23.70;48.20
34406;DHT22;20658;45.630;8.886;2023-08-06T06:45:11;23.70;48.50
34406;DHT22;20658;45.630;8.886;2023-08-06T06:47:44;23.70;48.10
34406;DHT22;20658;45.630;8.886;2023-08-06T06:50:18;23.60;48.00
34406;DHT22;20658;45.630;8.886;2023-08-06T06:52:51;23.90;48.30
34406;DHT22;20658;45.630;8.886;2023-08-06T06:55:25;24.20;47.00
34406;DHT22;20658;45.630;8.886;2023-08-06T06:57:58;24.40;46.60
34406;DHT22;20658;45.630;8.886;2023-08-06T07:00:35;24.30;45.80
34406;DHT22;20658;45.630;8.886;2023-08-06T07:03:09;24.20;44.70
34406;DHT22;20658;45.630;8.886;2023-08-06T07:05:42;24.10;45.30
34406;DHT22;20658;45.630;8.886;2023-08-06T07:08:17;24.70;45.10
34406;DHT22;20658;45.630;8.886;2023-08-06T07:10:50;24.50;44.60
34406;DHT22;20658;45.630;8.886;2023-08-06T07:13:24;24.40;45.00
34406;DHT22;20658;45.630;8.886;2023-08-06T07:15:58;24.70;44.20
34406;DHT22;20658;45.630;8.886;2023-08-06T07:18:32;24.50;41.80
34406;DHT22;20658;45.630;8.886;2023-08-06T07:21:05;24.80;41.10
34406;DHT22;20658;45.630;8.886;2023-08-06T07:23:38;24.80;39.80
34406;DHT22;20658;45.630;8.886;2023-08-06T07:26:12;24.80;40.30
34406;DHT22;20658;45.630;8.886;2023-08-06T07:28:45;25.10;41.20
34406;DHT22;20658;45.630;8.886;2023-08-06T07:31:20;25.40;41.30
34406;DHT22;20658;45.630;8.886;2023-08-06T07:33:53;25.80;41.20
34406;DHT22;20658;45.630;8.886;2023-08-06T07:36:27;25.80;40.10
34406;DHT22;20658;45.630;8.886;2023-08-06T07:39:00;26.00;39.50
34406;DHT22;20658;45.630;8.886;2023-08-06T07:41:29;25.80;39.20
34406;DHT22;20658;45.630;8.886;2023-08-06T07:44:03;25.90;39.10
34406;DHT22;20658;45.630;8.886;2023-08-06T07:46:38;26.00;39.90
34406;DHT22;20658;45.630;8.886;2023-08-06T07:49:11;25.80;39.50
34406;DHT22;20658;45.630;8.886;2023-08-06T07:51:45;25.90;40.30
34406;DHT22;20658;45.630;8.886;2023-08-06T07:54:18;26.00;40.40
34406;DHT22;20658;45.630;8.886;2023-08-06T07:56:52;26.30;40.20
34406;DHT22;20658;45.630;8.886;2023-08-06T07:59:25;26.40;39.30
34406;DHT22;20658;45.630;8.886;2023-08-06T08:02:00;26.50;39.00
34406;DHT22;20658;45.630;8.886;2023-08-06T08:04:34;26.40;39.00
34406;DHT22;20658;45.630;8.886;2023-08-06T08:07:02;26.50;37.60
34406;DHT22;20658;45.630;8.886;2023-08-06T08:09:36;26.60;38.10
34406;DHT22;20658;45.630;8.886;2023-08-06T08:12:09;26.40;37.60
34406;DHT22;20658;45.630;8.886;2023-08-06T08:14:43;26.50;37.40
34406;DHT22;20658;45.630;8.886;2023-08-06T08:17:18;26.70;36.90
34406;DHT22;20658;45.630;8.886;2023-08-06T08:19:52;26.80;37.30
34406;DHT22;20658;45.630;8.886;2023-08-06T08:22:25;26.40;37.80
34406;DHT22;20658;45.630;8.886;2023-08-06T08:24:58;26.70;38.00
34406;DHT22;20658;45.630;8.886;2023-08-06T08:27:32;26.60;38.10
34406;DHT22;20658;45.630;8.886;2023-08-06T08:30:06;26.50;38.80
34406;DHT22;20658;45.630;8.886;2023-08-06T08:32:42;26.70;38.40
34406;DHT22;20658;45.630;8.886;2023-08-06T08:35:10;27.00;38.40
34406;DHT22;20658;45.630;8.886;2023-08-06T08:37:44;27.30;38.10
34406;DHT22;20658;45.630;8.886;2023-08-06T08:40:18;27.50;38.40
34406;DHT22;20658;45.630;8.886;2023-08-06T08:42:51;27.20;37.80
34406;DHT22;20658;45.630;8.886;2023-08-06T08:45:27;27.10;37.80
34406;DHT22;20658;45.630;8.886;2023-08-06T08:48:04;27.40;37.40
34406;DHT22;20658;45.630;8.886;2023-08-06T08:50:37;27.30;37.50
34406;DHT22;20658;45.630;8.886;2023-08-06T08:53:13;27.80;37.10
34406;DHT22;20658;45.630;8.886;2023-08-06T08:55:48;27.70;36.30
34406;DHT22;20658;45.630;8.886;2023-08-06T08:58:22;27.10;37.50
34406;DHT22;20658;45.630;8.886;2023-08-06T09:00:55;27.40;37.10
34406;DHT22;20658;45.630;8.886;2023-08-06T09:03:31;27.90;36.90
34406;DHT22;20658;45.630;8.886;2023-08-06T09:06:06;28.20;36.60
34406;DHT22;20658;45.630;8.886;2023-08-06T09:08:43;28.40;36.70
34406;DHT22;20658;45.630;8.886;2023-08-06T09:11:20;28.00;33.40
34406;DHT22;20658;45.630;8.886;2023-08-06T09:13:55;27.80;32.80
34406;DHT22;20658;45.630;8.886;2023-08-06T09:16:29;27.80;32.30
34406;DHT22;20658;45.630;8.886;2023-08-06T09:19:11;27.60;33.40
34406;DHT22;20658;45.630;8.886;2023-08-06T09:21:45;27.50;33.40
34406;DHT22;20658;45.630;8.886;2023-08-06T09:24:20;26.80;32.90
34406;DHT22;20658;45.630;8.886;2023-08-06T09:26:54;27.80;33.50
34406;DHT22;20658;45.630;8.886;2023-08-06T09:29:31;28.10;33.30
34406;DHT22;20658;45.630;8.886;2023-08-06T09:32:05;27.80;31.40
34406;DHT22;20658;45.630;8.886;2023-08-06T09:34:42;28.10;30.70
34406;DHT22;20658;45.630;8.886;2023-08-06T09:37:16;28.70;32.10
34406;DHT22;20658;45.630;8.886;2023-08-06T09:39:49;28.90;30.90
34406;DHT22;20658;45.630;8.886;2023-08-06T09:42:23;28.60;29.00
34406;DHT22;20658;45.630;8.886;2023-08-06T09:45:06;28.50;30.60
34406;DHT22;20658;45.630;8.886;2023-08-06T09:47:40;28.30;30.60
34406;DHT22;20658;45.630;8.886;2023-08-06T09:50:17;28.30;30.80
34406;DHT22;20658;45.630;8.886;2023-08-06T09:52:52;28.30;30.20
34406;DHT22;20658;45.630;8.886;2023-08-06T09:55:26;28.20;29.20
34406;DHT22;20658;45.630;8.886;2023-08-06T09:58:00;28.50;28.90
34406;DHT22;20658;45.630;8.886;2023-08-06T10:00:34;28.60;29.10
34406;DHT22;20658;45.630;8.886;2023-08-06T10:03:09;28.60;28.50
34406;DHT22;20658;45.630;8.886;2023-08-06T10:05:47;28.40;29.20
34406;DHT22;20658;45.630;8.886;2023-08-06T10:08:20;28.60;29.00
34406;DHT22;20658;45.630;8.886;2023-08-06T10:10:54;28.30;29.00
34406;DHT22;20658;45.630;8.886;2023-08-06T10:13:24;28.80;28.30
34406;DHT22;20658;45.630;8.886;2023-08-06T10:15:58;28.40;29.00
34406;DHT22;20658;45.630;8.886;2023-08-06T10:18:32;28.70;28.50
34406;DHT22;20658;45.630;8.886;2023-08-06T10:21:09;28.80;28.30
34406;DHT22;20658;45.630;8.886;2023-08-06T10:23:40;28.50;27.20
34406;DHT22;20658;45.630;8.886;2023-08-06T10:26:09;28.60;27.00
34406;DHT22;20658;45.630;8.886;2023-08-06T10:28:43;28.70;27.20
34406;DHT22;20658;45.630;8.886;2023-08-06T10:31:16;28.50;27.20
34406;DHT22;20658;45.630;8.886;2023-08-06T10:33:47;28.70;27.00
34406;DHT22;20658;45.630;8.886;2023-08-06T10:36:26;28.80;27.20
34406;DHT22;20658;45.630;8.886;2023-08-06T10:39:00;28.90;26.70
34406;DHT22;20658;45.630;8.886;2023-08-06T10:41:34;29.40;27.70
34406;DHT22;20658;45.630;8.886;2023-08-06T10:44:08;28.90;26.40
34406;DHT22;20658;45.630;8.886;2023-08-06T10:46:42;29.00;27.10
34406;DHT22;20658;45.630;8.886;2023-08-06T10:49:17;29.40;27.00
34406;DHT22;20658;45.630;8.886;2023-08-06T10:51:53;29.80;26.50
34406;DHT22;20658;45.630;8.886;2023-08-06T10:54:27;29.30;26.60
34406;DHT22;20658;45.630;8.886;2023-08-06T10:57:00;29.00;30.00
34406;DHT22;20658;45.630;8.886;2023-08-06T10:59:33;29.60;30.00
34406;DHT22;20658;45.630;8.886;2023-08-06T11:02:08;30.20;29.10
34406;DHT22;20658;45.630;8.886;2023-08-06T11:04:42;30.00;30.10
34406;DHT22;20658;45.630;8.886;2023-08-06T11:07:17;30.10;30.20
34406;DHT22;20658;45.630;8.886;2023-08-06T11:09:50;29.40;27.00
34406;DHT22;20658;45.630;8.886;2023-08-06T11:12:25;29.60;26.40
34406;DHT22;20658;45.630;8.886;2023-08-06T11:15:00;29.40;26.50
34406;DHT22;20658;45.630;8.886;2023-08-06T11:17:34;29.50;26.80
34406;DHT22;20658;45.630;8.886;2023-08-06T11:20:09;29.50;26.70
34406;DHT22;20658;45.630;8.886;2023-08-06T11:22:44;29.40;26.80
34406;DHT22;20658;45.630;8.886;2023-08-06T11:25:20;29.70;27.20
34406;DHT22;20658;45.630;8.886;2023-08-06T11:27:54;29.10;29.00
34406;DHT22;20658;45.630;8.886;2023-08-06T11:30:27;29.30;30.00
34406;DHT22;20658;45.630;8.886;2023-08-06T11:33:01;29.30;28.50
34406;DHT22;20658;45.630;8.886;2023-08-06T11:35:34;29.40;28.60
34406;DHT22;20658;45.630;8.886;2023-08-06T11:38:09;29.60;27.40
34406;DHT22;20658;45.630;8.886;2023-08-06T11:40:44;30.20;27.00
34406;DHT22;20658;45.630;8.886;2023-08-06T11:43:18;30.50;27.30
34406;DHT22;20658;45.630;8.886;2023-08-06T11:45:55;30.70;27.00
34406;DHT22;20658;45.630;8.886;2023-08-06T11:48:29;31.10;28.10
34406;DHT22;20658;45.630;8.886;2023-08-06T11:51:03;30.90;27.10
34406;DHT22;20658;45.630;8.886;2023-08-06T11:53:38;30.60;27.60
34406;DHT22;20658;45.630;8.886;2023-08-06T11:56:12;30.80;27.30
34406;DHT22;20658;45.630;8.886;2023-08-06T11:58:46;30.90;26.70
34406;DHT22;20658;45.630;8.886;2023-08-06T12:01:19;31.00;27.30
34406;DHT22;20658;45.630;8.886;2023-08-06T12:03:58;31.10;27.00
34406;DHT22;20658;45.630;8.886;2023-08-06T12:06:42;30.60;27.50
34406;DHT22;20658;45.630;8.886;2023-08-06T12:09:17;30.60;27.00
34406;DHT22;20658;45.630;8.886;2023-08-06T12:11:50;30.90;26.80
34406;DHT22;20658;45.630;8.886;2023-08-06T12:14:24;30.80;27.10
34406;DHT22;20658;45.630;8.886;2023-08-06T12:16:57;31.00;27.10
34406;DHT22;20658;45.630;8.886;2023-08-06T12:19:32;31.10;26.50
34406;DHT22;20658;45.630;8.886;2023-08-06T12:22:06;31.70;26.70
34406;DHT22;20658;45.630;8.886;2023-08-06T12:24:43;31.70;26.10
34406;DHT22;20658;45.630;8.886;2023-08-06T12:27:12;31.40;26.40
34406;DHT22;20658;45.630;8.886;2023-08-06T12:29:48;31.30;26.30
34406;DHT22;20658;45.630;8.886;2023-08-06T12:32:21;31.50;25.90
34406;DHT22;20658;45.630;8.886;2023-08-06T12:34:54;31.10;24.50
34406;DHT22;20658;45.630;8.886;2023-08-06T12:37:28;30.70;22.80
34406;DHT22;20658;45.630;8.886;2023-08-06T12:40:04;30.50;21.20
34406;DHT22;20658;45.630;8.886;2023-08-06T12:42:40;30.80;21.20
34406;DHT22;20658;45.630;8.886;2023-08-06T12:45:14;30.50;20.70
34406;DHT22;20658;45.630;8.886;2023-08-06T12:47:53;30.40;20.70
34406;DHT22;20658;45.630;8.886;2023-08-06T12:50:27;30.00;20.40
34406;DHT22;20658;45.630;8.886;2023-08-06T12:53:00;30.10;21.50
34406;DHT22;20658;45.630;8.886;2023-08-06T12:55:38;30.10;21.10
34406;DHT22;20658;45.630;8.886;2023-08-06T12:58:07;30.10;20.70
34406;DHT22;20658;45.630;8.886;2023-08-06T13:00:41;30.00;20.80
34406;DHT22;20658;45.630;8.886;2023-08-06T13:03:14;29.90;20.10
34406;DHT22;20658;45.630;8.886;2023-08-06T13:05:48;29.90;20.60
34406;DHT22;20658;45.630;8.886;2023-08-06T13:08:21;30.10;20.90
34406;DHT22;20658;45.630;8.886;2023-08-06T13:10:56;30.10;20.70
34406;DHT22;20658;45.630;8.886;2023-08-06T13:13:29;29.90;20.10
34406;DHT22;20658;45.630;8.886;2023-08-06T13:16:03;30.00;21.20
34406;DHT22;20658;45.630;8.886;2023-08-06T13:18:37;29.90;20.90
34406;DHT22;20658;45.630;8.886;2023-08-06T13:21:13;29.70;20.40
34406;DHT22;20658;45.630;8.886;2023-08-06T13:23:46;30.20;21.40
34406;DHT22;20658;45.630;8.886;2023-08-06T13:26:21;30.40;21.60
34406;DHT22;20658;45.630;8.886;2023-08-06T13:28:56;30.40;20.20
34406;DHT22;20658;45.630;8.886;2023-08-06T13:31:30;30.50;20.70
34406;DHT22;20658;45.630;8.886;2023-08-06T13:34:03;30.70;20.20
34406;DHT22;20658;45.630;8.886;2023-08-06T13:36:37;30.70;20.00
34406;DHT22;20658;45.630;8.886;2023-08-06T13:39:10;30.20;20.70
34406;DHT22;20658;45.630;8.886;2023-08-06T13:41:45;29.80;20.10
34406;DHT22;20658;45.630;8.886;2023-08-06T13:44:19;30.00;20.60
34406;DHT22;20658;45.630;8.886;2023-08-06T13:46:52;30.00;20.70
34406;DHT22;20658;45.630;8.886;2023-08-06T13:49:25;30.00;20.70
34406;DHT22;20658;45.630;8.886;2023-08-06T13:51:59;30.20;20.70
34406;DHT22;20658;45.630;8.886;2023-08-06T13:54:32;30.20;20.70
34406;DHT22;20658;45.630;8.886;2023-08-06T13:57:07;30.30;20.50
34406;DHT22;20658;45.630;8.886;2023-08-06T13:59:41;30.00;20.20
34406;DHT22;20658;45.630;8.886;2023-08-06T14:02:15;29.90;19.50
34406;DHT22;20658;45.630;8.886;2023-08-06T14:04:49;30.10;20.70
34406;DHT22;20658;45.630;8.886;2023-08-06T14:07:22;30.10;20.20
34406;DHT22;20658;45.630;8.886;2023-08-06T14:09:56;30.40;20.30
34406;DHT22;20658;45.630;8.886;2023-08-06T14:12:31;30.50;19.80
34406;DHT22;20658;45.630;8.886;2023-08-06T14:15:05;30.30;20.70
34406;DHT22;20658;45.630;8.886;2023-08-06T14:17:39;30.60;20.40
34406;DHT22;20658;45.630;8.886;2023-08-06T14:20:13;30.20;19.40
34406;DHT22;20658;45.630;8.886;2023-08-06T14:22:46;29.80;19.60
34406;DHT22;20658;45.630;8.886;2023-08-06T14:25:20;30.10;20.50
34406;DHT22;20658;45.630;8.886;2023-08-06T14:27:55;30.20;20.30
34406;DHT22;20658;45.630;8.886;2023-08-06T14:30:28;30.10;19.50
34406;DHT22;20658;45.630;8.886;2023-08-06T14:33:02;29.90;19.30
34406;DHT22;20658;45.630;8.886;2023-08-06T14:35:36;29.90;20.10
34406;DHT22;20658;45.630;8.886;2023-08-06T14:38:09;30.10;21.50
34406;DHT22;20658;45.630;8.886;2023-08-06T14:40:43;29.80;19.40
34406;DHT22;20658;45.630;8.886;2023-08-06T14:43:18;29.60;19.60
34406;DHT22;20658;45.630;8.886;2023-08-06T14:45:52;29.90;19.40
34406;DHT22;20658;45.630;8.886;2023-08-06T14:48:25;30.10;20.50
34406;DHT22;20658;45.630;8.886;2023-08-06T14:50:59;30.10;20.10
34406;DHT22;20658;45.630;8.886;2023-08-06T14:53:32;30.10;20.10
34406;DHT22;20658;45.630;8.886;2023-08-06T14:56:06;29.70;20.30
34406;DHT22;20658;45.630;8.886;2023-08-06T14:58:41;29.60;20.60
34406;DHT22;20658;45.630;8.886;2023-08-06T15:01:14;29.40;20.50
34406;DHT22;20658;45.630;8.886;2023-08-06T15:03:48;29.40;21.40
34406;DHT22;20658;45.630;8.886;2023-08-06T15:06:21;29.90;20.90
34406;DHT22;20658;45.630;8.886;2023-08-06T15:08:55;30.30;21.00
34406;DHT22;20658;45.630;8.886;2023-08-06T15:11:32;30.10;20.70
34406;DHT22;20658;45.630;8.886;2023-08-06T15:14:07;29.90;20.10
34406;DHT22;20658;45.630;8.886;2023-08-06T15:16:40;29.80;20.10
34406;DHT22;20658;45.630;8.886;2023-08-06T15:19:14;29.80;20.20
34406;DHT22;20658;45.630;8.886;2023-08-06T15:21:47;29.90;20.70
34406;DHT22;20658;45.630;8.886;2023-08-06T15:24:21;30.00;20.90
34406;DHT22;20658;45.630;8.886;2023-08-06T15:26:54;29.90;20.80
34406;DHT22;20658;45.630;8.886;2023-08-06T15:29:29;29.90;20.90
34406;DHT22;20658;45.630;8.886;2023-08-06T15:32:03;29.90;20.20
34406;DHT22;20658;45.630;8.886;2023-08-06T15:34:37;30.10;21.20
34406;DHT22;20658;45.630;8.886;2023-08-06T15:37:11;30.20;21.60
34406;DHT22;20658;45.630;8.886;2023-08-06T15:39:44;30.00;20.70
34406;DHT22;20658;45.630;8.886;2023-08-06T15:42:18;29.70;20.40
34406;DHT22;20658;45.630;8.886;2023-08-06T15:44:53;29.80;20.40
34406;DHT22;20658;45.630;8.886;2023-08-06T15:47:26;29.80;20.90
34406;DHT22;20658;45.630;8.886;2023-08-06T15:50:00;29.70;20.90
34406;DHT22;20658;45.630;8.886;2023-08-06T15:52:34;29.30;20.40
34406;DHT22;20658;45.630;8.886;2023-08-06T15:55:08;29.40;20.60
34406;DHT22;20658;45.630;8.886;2023-08-06T15:57:36;29.40;20.80
34406;DHT22;20658;45.630;8.886;2023-08-06T16:00:12;29.70;21.00
34406;DHT22;20658;45.630;8.886;2023-08-06T16:02:46;29.70;20.80
34406;DHT22;20658;45.630;8.886;2023-08-06T16:05:19;29.70;20.60
34406;DHT22;20658;45.630;8.886;2023-08-06T16:07:55;29.80;20.70
34406;DHT22;20658;45.630;8.886;2023-08-06T16:10:23;29.60;20.40
34406;DHT22;20658;45.630;8.886;2023-08-06T16:12:57;29.50;20.90